Time;durP1;ratioP1;P1;durP2;ratioP2;P2;SDS_P1;SDS_P2;PMS_P1;PMS_P2;Temp;Humidity;BMP_temperature;BMP_pressure;BME280_temperature;BME280_humidity;BME280_pressure;Samples;Min_cycle;Max_cycle;Signal;HPM_P1;HPM_P2
2023/03/10 00:00:45;;;;;;;19.87;9.93;;;3.20;99.90;;;;;;5030087;28;20443;-56
2023/03/10 00:03:19;;;;;;;24.80;11.97;;;3.20;99.90;;;;;;5026184;28;20441;-60
2023/03/10 00:05:47;;;;;;;19.83;9.93;;;3.20;99.90;;;;;;5027166;28;20465;-58
2023/03/10 00:08:14;;;;;;;23.07;10.10;;;3.20;99.90;;;;;;5023052;28;20466;-62
2023/03/10 00:10:40;;;;;;;23.80;10.67;;;3.20;99.90;;;;;;5024953;28;20430;-55
2023/03/10 00:13:07;;;;;;;21.77;9.90;;;3.10;99.90;;;;;;5016977;28;20494;-59
2023/03/10 00:15:36;;;;;;;19.53;9.80;;;3.10;99.90;;;;;;5024496;28;21039;-62
2023/03/10 00:18:03;;;;;;;17.60;9.50;;;3.00;99.90;;;;;;5024542;28;20430;-60
2023/03/10 00:20:31;;;;;;;22.10;10.57;;;3.10;99.90;;;;;;5025156;28;20457;-61
2023/03/10 00:22:58;;;;;;;25.80;10.63;;;3.00;99.90;;;;;;5022148;28;20441;-60
2023/03/10 00:25:25;;;;;;;18.87;9.03;;;3.00;99.90;;;;;;5017365;28;20474;-65
2023/03/10 00:27:52;;;;;;;13.27;7.87;;;3.00;99.90;;;;;;5021347;28;20454;-55
2023/03/10 00:30:21;;;;;;;20.07;9.67;;;3.00;99.90;;;;;;5021823;28;20469;-61
2023/03/10 00:32:50;;;;;;;20.47;11.80;;;3.00;99.90;;;;;;5025503;28;20449;-63
2023/03/10 00:35:17;;;;;;;28.17;12.43;;;3.00;99.90;;;;;;5035235;28;20475;-66
2023/03/10 00:37:45;;;;;;;18.10;10.43;;;2.90;99.90;;;;;;5038028;28;20500;-61
2023/03/10 00:40:15;;;;;;;15.07;8.40;;;2.90;99.90;;;;;;5038352;28;20440;-62
2023/03/10 00:42:43;;;;;;;17.90;8.47;;;3.00;99.90;;;;;;5038683;28;20436;-56
2023/03/10 00:45:10;;;;;;;17.33;10.93;;;3.00;99.90;;;;;;5038318;28;20451;-63
2023/03/10 00:47:37;;;;;;;15.87;8.13;;;3.00;99.90;;;;;;5037547;28;20440;-62
2023/03/10 00:50:05;;;;;;;19.27;9.07;;;3.00;99.90;;;;;;5037421;28;20499;-59
2023/03/10 00:52:34;;;;;;;17.10;7.80;;;3.00;99.90;;;;;;5038017;28;20445;-61
2023/03/10 00:55:02;;;;;;;17.00;8.27;;;3.00;99.90;;;;;;5036415;28;21004;-65
2023/03/10 00:57:29;;;;;;;17.07;8.57;;;3.00;99.90;;;;;;5029761;28;20531;-64
2023/03/10 00:59:56;;;;;;;16.40;8.80;;;3.00;99.90;;;;;;5033173;28;20477;-64
2023/03/10 01:02:23;;;;;;;21.13;9.47;;;3.00;99.90;;;;;;5033629;28;20468;-65
2023/03/10 01:04:53;;;;;;;17.27;7.87;;;3.00;99.90;;;;;;5029205;28;20471;-65
2023/03/10 01:07:19;;;;;;;15.33;6.90;;;3.00;99.90;;;;;;5027778;28;20472;-58
2023/03/10 01:09:46;;;;;;;16.13;9.10;;;3.00;99.90;;;;;;5036523;28;20472;-57
2023/03/10 01:12:14;;;;;;;19.17;9.63;;;3.10;99.90;;;;;;5031082;28;20464;-60
2023/03/10 01:14:41;;;;;;;19.83;8.53;;;3.10;99.90;;;;;;5017554;28;20504;-65
2023/03/10 01:17:10;;;;;;;19.00;8.63;;;3.10;99.90;;;;;;5020950;28;20564;-55
2023/03/10 01:19:37;;;;;;;15.13;9.20;;;3.10;99.90;;;;;;5030833;28;20464;-62
2023/03/10 01:22:04;;;;;;;16.43;7.57;;;3.10;99.90;;;;;;5029377;28;20552;-57
2023/03/10 01:24:30;;;;;;;27.43;10.77;;;3.10;99.90;;;;;;5024994;28;20436;-61
2023/03/10 01:26:59;;;;;;;19.90;9.17;;;3.10;99.90;;;;;;5018912;28;20461;-63
2023/03/10 01:29:27;;;;;;;18.57;9.57;;;3.10;99.90;;;;;;5017914;28;20474;-61
2023/03/10 01:31:55;;;;;;;13.00;8.30;;;3.10;99.90;;;;;;5022415;28;20462;-64
2023/03/10 01:34:22;;;;;;;13.63;7.67;;;3.00;99.90;;;;;;5028994;28;20500;-64
2023/03/10 01:36:48;;;;;;;15.70;9.10;;;3.10;99.90;;;;;;5009750;28;20474;-63
2023/03/10 01:39:15;;;;;;;16.57;9.00;;;3.00;99.90;;;;;;5009261;28;20505;-64
2023/03/10 01:41:42;;;;;;;12.30;6.73;;;3.10;99.90;;;;;;5010363;28;20458;-66
2023/03/10 01:44:15;;;;;;;10.70;6.83;;;3.00;99.90;;;;;;5025262;28;20477;-62
2023/03/10 01:46:46;;;;;;;9.50;6.27;;;3.10;99.90;;;;;;5028694;28;20465;-65
2023/03/10 01:49:24;;;;;;;16.00;7.57;;;3.10;99.90;;;;;;5029056;28;20425;-65
2023/03/10 01:51:55;;;;;;;13.13;6.60;;;3.10;99.90;;;;;;5028541;28;20469;-63
2023/03/10 01:54:28;;;;;;;17.87;10.07;;;3.00;99.90;;;;;;5027383;28;20476;-61
2023/03/10 01:56:57;;;;;;;14.60;8.20;;;3.00;99.90;;;;;;5028762;28;20468;-63
2023/03/10 01:59:26;;;;;;;18.63;8.20;;;3.00;99.90;;;;;;5029646;28;20460;-62
2023/03/10 02:01:56;;;;;;;10.20;5.30;;;3.10;99.90;;;;;;5028469;28;20444;-65
2023/03/10 02:04:32;;;;;;;13.43;6.63;;;3.10;99.90;;;;;;5028537;28;20477;-63
2023/03/10 02:06:59;;;;;;;8.30;6.00;;;3.10;99.90;;;;;;5028795;28;20520;-65
2023/03/10 02:09:27;;;;;;;11.13;6.70;;;3.10;99.90;;;;;;5028774;28;20840;-65
2023/03/10 02:11:55;;;;;;;12.83;7.47;;;3.10;99.90;;;;;;5028968;28;20499;-65
2023/03/10 02:14:22;;;;;;;10.30;6.97;;;3.10;99.90;;;;;;5028542;28;20480;-61
2023/03/10 02:16:49;;;;;;;16.07;6.73;;;3.10;99.90;;;;;;5024826;28;20575;-65
2023/03/10 02:19:34;;;;;;;15.27;8.27;;;3.20;99.90;;;;;;5026873;28;20469;-64
2023/03/10 02:22:07;;;;;;;14.00;7.50;;;3.20;99.90;;;;;;5027032;28;20501;-65
2023/03/10 02:24:42;;;;;;;14.47;7.63;;;3.20;99.90;;;;;;5027737;28;20822;-63
2023/03/10 02:27:15;;;;;;;17.67;8.43;;;3.10;99.90;;;;;;5027670;28;20518;-60
2023/03/10 02:29:48;;;;;;;16.33;7.43;;;3.10;99.90;;;;;;5028843;28;20457;-66
2023/03/10 02:32:16;;;;;;;15.03;7.87;;;3.10;99.90;;;;;;5027994;28;20472;-64
2023/03/10 02:34:44;;;;;;;15.70;8.50;;;3.10;99.90;;;;;;5028603;28;20806;-65
2023/03/10 02:37:19;;;;;;;12.93;7.37;;;3.10;99.90;;;;;;5027770;28;20523;-64
2023/03/10 02:39:46;;;;;;;13.77;6.20;;;3.10;99.90;;;;;;5028060;28;20437;-58
2023/03/10 02:42:15;;;;;;;15.57;7.10;;;3.10;99.90;;;;;;5027244;28;20761;-63
2023/03/10 02:44:43;;;;;;;12.80;6.70;;;3.10;99.90;;;;;;5027531;28;20477;-65
2023/03/10 02:47:10;;;;;;;17.97;7.70;;;3.10;99.90;;;;;;5028368;28;20875;-63
2023/03/10 02:49:38;;;;;;;17.47;7.97;;;3.10;99.90;;;;;;5027480;28;20445;-63
2023/03/10 02:52:09;;;;;;;16.10;8.53;;;3.10;99.90;;;;;;5026778;28;20481;-61
2023/03/10 02:54:36;;;;;;;12.37;7.50;;;3.10;99.90;;;;;;5027252;28;20488;-63
2023/03/10 02:57:03;;;;;;;18.30;7.63;;;3.10;99.90;;;;;;5028045;28;20544;-64
2023/03/10 02:59:31;;;;;;;16.67;7.67;;;3.10;99.90;;;;;;5028908;28;20480;-60
2023/03/10 03:01:58;;;;;;;18.43;8.60;;;3.10;99.90;;;;;;5027634;28;20456;-65
2023/03/10 03:04:25;;;;;;;13.80;6.90;;;3.20;99.90;;;;;;5027147;28;20597;-61
2023/03/10 03:06:52;;;;;;;12.93;7.90;;;3.20;99.90;;;;;;5027600;28;20481;-61
2023/03/10 03:09:19;;;;;;;11.70;6.90;;;3.20;99.90;;;;;;5026915;28;20536;-58
2023/03/10 03:11:46;;;;;;;14.20;7.80;;;3.20;99.90;;;;;;5027598;28;20505;-63
2023/03/10 03:14:13;;;;;;;14.43;6.87;;;3.20;99.90;;;;;;5027888;28;20481;-61
2023/03/10 03:16:41;;;;;;;11.77;6.83;;;3.20;99.90;;;;;;5028330;28;20491;-63
2023/03/10 03:19:08;;;;;;;12.77;6.30;;;3.20;99.90;;;;;;5027362;28;20500;-64
2023/03/10 03:21:35;;;;;;;11.67;5.97;;;3.20;99.90;;;;;;5028097;28;20456;-64
2023/03/10 03:24:02;;;;;;;8.70;4.90;;;3.20;99.90;;;;;;5028204;28;20508;-64
2023/03/10 03:26:30;;;;;;;10.80;5.53;;;3.10;99.90;;;;;;5027439;28;20665;-63
2023/03/10 03:28:57;;;;;;;18.33;7.93;;;3.10;99.90;;;;;;5027216;28;20536;-66
2023/03/10 03:31:25;;;;;;;14.03;6.00;;;3.10;99.90;;;;;;5027622;28;20445;-63
2023/03/10 03:33:54;;;;;;;11.30;5.63;;;3.10;99.90;;;;;;5026552;28;20456;-65
2023/03/10 03:36:20;;;;;;;10.63;6.33;;;3.20;99.90;;;;;;5026520;28;20520;-62
2023/03/10 03:38:47;;;;;;;11.43;6.87;;;3.10;99.90;;;;;;5027067;28;20453;-67
2023/03/10 03:41:14;;;;;;;9.93;5.10;;;3.20;99.90;;;;;;5026552;28;20537;-63
2023/03/10 03:43:41;;;;;;;10.90;5.97;;;3.20;99.90;;;;;;5026621;28;20444;-62
2023/03/10 03:46:08;;;;;;;11.27;6.77;;;3.20;99.90;;;;;;5026296;28;20924;-62
2023/03/10 03:48:35;;;;;;;14.30;6.60;;;3.20;99.90;;;;;;5025733;28;20519;-62
2023/03/10 03:51:03;;;;;;;10.93;6.73;;;3.20;99.90;;;;;;5026147;28;20461;-65
2023/03/10 03:53:32;;;;;;;7.30;5.13;;;3.20;99.90;;;;;;5026251;28;20507;-63
2023/03/10 03:55:59;;;;;;;15.10;6.10;;;3.10;99.90;;;;;;5026721;28;20473;-60
2023/03/10 03:58:26;;;;;;;8.53;4.30;;;3.20;99.90;;;;;;5027887;28;20533;-56
2023/03/10 04:00:53;;;;;;;9.80;5.57;;;3.20;99.90;;;;;;5027849;28;20476;-64
2023/03/10 04:03:20;;;;;;;9.37;6.07;;;3.10;99.90;;;;;;5026985;28;20468;-65
2023/03/10 04:05:47;;;;;;;11.47;6.43;;;3.10;99.90;;;;;;5019920;28;20495;-63
2023/03/10 04:08:15;;;;;;;9.80;5.30;;;3.10;99.90;;;;;;5018964;28;20515;-65
2023/03/10 04:10:42;;;;;;;10.10;5.20;;;3.10;99.90;;;;;;5019030;28;20503;-65
2023/03/10 04:13:09;;;;;;;5.80;4.23;;;3.10;99.90;;;;;;5018061;28;20515;-65
2023/03/10 04:15:36;;;;;;;10.70;5.90;;;3.20;99.90;;;;;;5018849;28;20455;-64
2023/03/10 04:18:07;;;;;;;9.67;5.37;;;3.20;99.90;;;;;;5019079;28;20533;-65
2023/03/10 04:20:33;;;;;;;7.80;4.70;;;3.20;99.90;;;;;;5018826;28;20441;-65
2023/03/10 04:23:01;;;;;;;8.93;4.10;;;3.10;99.90;;;;;;5018609;28;20535;-65
2023/03/10 04:25:29;;;;;;;10.80;5.50;;;3.20;99.90;;;;;;5027905;28;20473;-58
2023/03/10 04:27:57;;;;;;;12.60;7.07;;;3.10;99.90;;;;;;5026743;28;20477;-64
2023/03/10 04:30:28;;;;;;;9.17;4.80;;;3.20;99.90;;;;;;5026578;28;20445;-64
2023/03/10 04:32:57;;;;;;;7.90;4.50;;;3.20;99.90;;;;;;5025765;28;20444;-64
2023/03/10 04:35:24;;;;;;;6.33;3.90;;;3.20;99.90;;;;;;5026547;28;20460;-64
2023/03/10 04:37:51;;;;;;;8.43;4.83;;;3.20;99.90;;;;;;5026212;28;20519;-60
2023/03/10 04:40:18;;;;;;;11.90;6.67;;;3.20;99.90;;;;;;5026364;28;20942;-65
2023/03/10 04:42:47;;;;;;;9.40;5.30;;;3.20;99.90;;;;;;5025909;28;20469;-64
2023/03/10 04:45:14;;;;;;;8.97;5.87;;;3.20;99.90;;;;;;5025756;28;20456;-65
2023/03/10 04:47:41;;;;;;;8.03;4.53;;;3.20;99.90;;;;;;5025967;28;20441;-65
2023/03/10 04:50:10;;;;;;;10.27;5.20;;;3.20;99.90;;;;;;5026538;28;20516;-65
2023/03/10 04:52:37;;;;;;;8.87;5.30;;;3.10;99.90;;;;;;5026006;28;20492;-63
2023/03/10 04:55:04;;;;;;;6.50;4.97;;;3.10;99.90;;;;;;5025734;28;20461;-63
2023/03/10 04:57:31;;;;;;;8.27;4.70;;;3.20;99.90;;;;;;5025692;28;20501;-64
2023/03/10 04:59:59;;;;;;;11.77;5.10;;;3.20;99.90;;;;;;5025511;28;20469;-63
2023/03/10 05:02:26;;;;;;;7.80;4.70;;;3.20;99.90;;;;;;5025242;28;20488;-63
2023/03/10 05:04:53;;;;;;;10.13;6.50;;;3.30;99.90;;;;;;5024407;28;20851;-63
2023/03/10 05:07:20;;;;;;;10.20;6.63;;;3.30;99.90;;;;;;5024503;28;20509;-65
2023/03/10 05:09:47;;;;;;;10.80;5.00;;;3.30;99.90;;;;;;5025097;28;20469;-63
2023/03/10 05:12:13;;;;;;;8.33;4.37;;;3.40;99.90;;;;;;5013428;28;20480;-64
2023/03/10 05:14:40;;;;;;;12.70;5.27;;;3.40;99.90;;;;;;5005444;28;20493;-64
2023/03/10 05:17:10;;;;;;;11.67;5.63;;;3.30;99.90;;;;;;5005286;28;20544;-64
2023/03/10 05:19:37;;;;;;;7.80;4.97;;;3.30;99.90;;;;;;5006097;28;20474;-62
2023/03/10 05:22:06;;;;;;;13.47;5.87;;;3.30;99.90;;;;;;5007511;28;20510;-64
2023/03/10 05:24:33;;;;;;;6.33;4.70;;;3.30;99.90;;;;;;5013166;28;20481;-65
2023/03/10 05:27:01;;;;;;;8.00;5.40;;;3.30;99.90;;;;;;5016523;28;20469;-62
2023/03/10 05:29:28;;;;;;;9.40;4.40;;;3.30;99.90;;;;;;5017037;28;20938;-66
2023/03/10 05:31:55;;;;;;;10.87;5.50;;;3.30;99.90;;;;;;5013338;28;20525;-60
2023/03/10 05:34:25;;;;;;;8.87;5.07;;;3.30;99.90;;;;;;5010976;28;20962;-60
2023/03/10 05:36:52;;;;;;;11.17;6.37;;;3.30;99.90;;;;;;5012614;28;20482;-64
2023/03/10 05:39:19;;;;;;;12.40;5.17;;;3.30;99.90;;;;;;5021909;28;20557;-66
2023/03/10 05:41:46;;;;;;;8.20;4.90;;;3.40;99.90;;;;;;5021941;28;20548;-62
2023/03/10 05:44:13;;;;;;;7.87;5.70;;;3.40;99.90;;;;;;5021536;28;20513;-64
2023/03/10 05:46:40;;;;;;;8.67;5.30;;;3.40;99.90;;;;;;5021348;28;20504;-64
2023/03/10 05:49:07;;;;;;;8.73;5.50;;;3.40;99.90;;;;;;5020879;28;20445;-63
2023/03/10 05:51:35;;;;;;;9.93;5.80;;;3.40;99.90;;;;;;5020910;28;20516;-60
2023/03/10 05:54:04;;;;;;;8.13;4.90;;;3.50;99.90;;;;;;5021047;28;20835;-63
2023/03/10 05:56:30;;;;;;;8.73;5.60;;;3.40;99.90;;;;;;5021157;28;20449;-64
2023/03/10 05:58:57;;;;;;;9.10;5.43;;;3.50;99.90;;;;;;5024091;28;20530;-58
2023/03/10 06:01:26;;;;;;;12.83;6.47;;;3.50;99.90;;;;;;5034640;28;20433;-59
2023/03/10 06:03:53;;;;;;;10.20;4.77;;;3.40;99.90;;;;;;5034950;28;20476;-64
2023/03/10 06:06:20;;;;;;;6.60;4.40;;;3.40;99.90;;;;;;5027139;28;20445;-62
2023/03/10 06:08:48;;;;;;;9.17;5.90;;;3.50;99.90;;;;;;5026248;28;20476;-62
2023/03/10 06:11:15;;;;;;;8.43;5.80;;;3.50;99.90;;;;;;5027038;28;20465;-62
2023/03/10 06:13:42;;;;;;;9.20;5.27;;;3.60;99.90;;;;;;5027635;28;20480;-61
2023/03/10 06:16:10;;;;;;;7.80;5.53;;;3.60;99.90;;;;;;5026394;28;21000;-67
2023/03/10 06:18:37;;;;;;;9.27;5.20;;;3.60;99.90;;;;;;5025765;28;20527;-61
2023/03/10 06:21:08;;;;;;;12.73;6.17;;;3.60;99.90;;;;;;5025383;28;20481;-66
2023/03/10 06:23:36;;;;;;;6.80;5.17;;;3.70;99.90;;;;;;5025332;28;20496;-62
2023/03/10 06:26:07;;;;;;;8.53;4.77;;;3.70;99.90;;;;;;5026344;28;20528;-62
2023/03/10 06:28:35;;;;;;;9.90;5.33;;;3.60;99.90;;;;;;5025376;28;20529;-64
2023/03/10 06:31:04;;;;;;;7.70;5.80;;;3.70;99.90;;;;;;5024942;28;20440;-64
2023/03/10 06:33:32;;;;;;;9.53;5.40;;;3.70;99.90;;;;;;5024945;28;20521;-64
2023/03/10 06:35:59;;;;;;;12.00;7.20;;;3.70;99.90;;;;;;5025682;28;20491;-65
2023/03/10 06:38:27;;;;;;;10.27;6.43;;;3.70;99.90;;;;;;5024939;28;20568;-65
2023/03/10 06:40:54;;;;;;;9.30;6.57;;;3.70;99.90;;;;;;5025094;28;20531;-64
2023/03/10 06:43:23;;;;;;;6.20;4.73;;;3.80;99.90;;;;;;5025434;28;20500;-65
2023/03/10 06:45:50;;;;;;;11.00;6.70;;;3.90;99.90;;;;;;5024715;28;20464;-66
2023/03/10 06:48:16;;;;;;;9.50;6.40;;;3.80;99.90;;;;;;5025024;28;20469;-65
2023/03/10 06:50:46;;;;;;;8.00;5.53;;;3.80;99.90;;;;;;5024049;28;20499;-63
2023/03/10 06:53:14;;;;;;;8.80;5.47;;;3.80;99.90;;;;;;5024149;28;20469;-66
2023/03/10 06:55:41;;;;;;;9.43;6.20;;;3.80;99.90;;;;;;5024094;28;20457;-64
2023/03/10 06:58:08;;;;;;;13.50;6.17;;;3.90;99.90;;;;;;5024943;28;20508;-62
2023/03/10 07:00:37;;;;;;;9.73;6.20;;;3.90;99.90;;;;;;5024184;28;20492;-63
2023/03/10 07:03:04;;;;;;;11.73;5.90;;;3.90;99.90;;;;;;5024256;28;21036;-64
2023/03/10 07:05:31;;;;;;;8.43;5.80;;;3.90;99.90;;;;;;5027755;28;20453;-64
2023/03/10 07:07:58;;;;;;;9.97;5.20;;;3.90;99.90;;;;;;5035850;28;20572;-62
2023/03/10 07:10:25;;;;;;;9.07;6.30;;;4.00;99.90;;;;;;5035517;28;20461;-63
2023/03/10 07:12:53;;;;;;;8.30;5.67;;;4.00;99.90;;;;;;5036150;28;20472;-60
2023/03/10 07:15:22;;;;;;;7.53;5.50;;;4.00;99.90;;;;;;5029881;28;20511;-62
2023/03/10 07:17:50;;;;;;;5.23;4.00;;;4.10;99.90;;;;;;5015715;28;20489;-60
2023/03/10 07:20:18;;;;;;;6.70;4.60;;;4.00;99.90;;;;;;5009140;28;20442;-64
2023/03/10 07:22:44;;;;;;;9.37;5.27;;;4.00;99.90;;;;;;5003842;28;20536;-64
2023/03/10 07:25:11;;;;;;;9.30;5.60;;;4.00;99.90;;;;;;5004031;28;20750;-64
2023/03/10 07:27:38;;;;;;;10.60;6.03;;;4.00;99.90;;;;;;5010087;28;20501;-60
2023/03/10 07:30:06;;;;;;;10.40;5.60;;;4.00;99.90;;;;;;5004808;28;20598;-65
2023/03/10 07:32:33;;;;;;;12.10;5.40;;;4.10;99.90;;;;;;5003104;28;20493;-64
2023/03/10 07:35:02;;;;;;;10.90;5.77;;;4.10;99.90;;;;;;5010142;28;20450;-61
2023/03/10 07:37:29;;;;;;;11.00;7.00;;;4.20;99.90;;;;;;5016932;28;20469;-62
2023/03/10 07:39:56;;;;;;;8.90;5.10;;;4.20;99.90;;;;;;5011815;28;20807;-65
2023/03/10 07:42:23;;;;;;;7.70;5.67;;;4.30;99.90;;;;;;5008884;28;20438;-62
2023/03/10 07:44:50;;;;;;;9.10;5.63;;;4.40;99.90;;;;;;5015199;28;20442;-63
2023/03/10 07:47:20;;;;;;;9.87;5.67;;;4.40;99.90;;;;;;5007804;28;20511;-67
2023/03/10 07:49:47;;;;;;;9.80;5.43;;;4.40;99.90;;;;;;5002708;28;20511;-59
2023/03/10 07:52:17;;;;;;;10.77;5.97;;;4.40;99.90;;;;;;5008079;28;20449;-59
2023/03/10 07:54:44;;;;;;;11.33;5.40;;;4.40;99.90;;;;;;5016622;28;20489;-60
2023/03/10 07:57:11;;;;;;;9.77;6.47;;;4.50;99.90;;;;;;5015457;28;20470;-67
2023/03/10 07:59:38;;;;;;;9.53;6.83;;;4.50;99.90;;;;;;5003808;28;20483;-67
2023/03/10 08:02:05;;;;;;;9.00;5.40;;;4.60;99.90;;;;;;5003776;28;20533;-66
2023/03/10 08:04:32;;;;;;;14.47;9.00;;;4.60;99.90;;;;;;5009225;28;20449;-58
2023/03/10 08:07:01;;;;;;;18.07;9.93;;;4.70;99.90;;;;;;5015884;28;20433;-61
2023/03/10 08:09:29;;;;;;;18.83;8.60;;;4.80;99.90;;;;;;5010924;28;20442;-62
2023/03/10 08:11:58;;;;;;;12.87;7.90;;;4.80;99.90;;;;;;5013859;28;20442;-65
2023/03/10 08:14:25;;;;;;;13.50;7.80;;;4.90;99.90;;;;;;5020774;28;20464;-63
2023/03/10 08:16:53;;;;;;;16.43;8.67;;;5.00;99.90;;;;;;5020782;28;20480;-60
2023/03/10 08:19:20;;;;;;;15.10;7.57;;;5.10;99.90;;;;;;5001901;28;20489;-66
2023/03/10 08:21:47;;;;;;;14.00;8.47;;;5.30;99.90;;;;;;5000616;28;20529;-66
2023/03/10 08:24:14;;;;;;;10.10;6.93;;;5.50;99.90;;;;;;5008545;28;20454;-65
2023/03/10 08:26:42;;;;;;;13.93;9.20;;;5.60;99.90;;;;;;5009712;28;20434;-63
2023/03/10 08:29:09;;;;;;;11.83;7.00;;;5.70;99.90;;;;;;5008204;28;20503;-61
2023/03/10 08:31:36;;;;;;;11.57;7.00;;;6.20;99.90;;;;;;5012922;28;20480;-68
2023/03/10 08:34:03;;;;;;;11.57;7.77;;;5.90;99.90;;;;;;5004604;28;20457;-67
2023/03/10 08:36:31;;;;;;;13.37;9.07;;;5.90;99.90;;;;;;5003514;28;20564;-59
2023/03/10 08:38:59;;;;;;;14.73;7.90;;;5.90;99.90;;;;;;5016839;28;20495;-65
2023/03/10 08:41:29;;;;;;;12.07;8.40;;;5.90;99.90;;;;;;5023528;28;20496;-64
2023/03/10 08:43:59;;;;;;;14.60;8.50;;;5.90;99.90;;;;;;5032839;28;20437;-64
2023/03/10 08:46:28;;;;;;;15.63;9.57;;;5.80;99.90;;;;;;5026960;28;20450;-58
2023/03/10 08:48:56;;;;;;;13.40;7.83;;;5.90;99.90;;;;;;5023458;28;20472;-62
2023/03/10 08:51:24;;;;;;;14.40;8.33;;;5.90;99.90;;;;;;5017223;28;20521;-60
2023/03/10 08:53:51;;;;;;;21.20;12.33;;;6.00;99.90;;;;;;5030411;28;20446;-59
2023/03/10 08:56:20;;;;;;;16.87;8.20;;;6.00;99.90;;;;;;5027526;28;20520;-59
2023/03/10 08:58:48;;;;;;;18.80;8.93;;;6.10;99.90;;;;;;5038857;28;20813;-60
2023/03/10 09:01:17;;;;;;;15.70;8.53;;;6.20;99.90;;;;;;5030230;28;21105;-60
2023/03/10 09:03:45;;;;;;;17.43;9.57;;;6.40;99.90;;;;;;5028327;28;20436;-57
2023/03/10 09:06:13;;;;;;;17.37;9.43;;;6.60;99.90;;;;;;5038027;28;20468;-61
2023/03/10 09:08:40;;;;;;;19.30;10.00;;;6.90;99.90;;;;;;5033653;28;20457;-62
2023/03/10 09:11:09;;;;;;;13.97;8.70;;;7.30;99.90;;;;;;5021906;28;20493;-49
2023/03/10 09:13:36;;;;;;;10.23;8.00;;;7.70;99.90;;;;;;5031759;28;20434;-60
2023/03/10 09:16:03;;;;;;;13.13;9.17;;;8.10;99.90;;;;;;5023796;28;20480;-60
2023/03/10 09:18:31;;;;;;;15.23;8.40;;;8.40;99.90;;;;;;5020026;28;20541;-58
2023/03/10 09:20:58;;;;;;;16.77;9.13;;;8.50;99.90;;;;;;5025915;28;20430;-51
2023/03/10 09:23:25;;;;;;;14.23;8.43;;;8.60;99.90;;;;;;5023099;28;20460;-54
2023/03/10 09:25:52;;;;;;;13.57;7.20;;;8.60;99.90;;;;;;5029944;28;20458;-55
2023/03/10 09:28:19;;;;;;;12.20;7.67;;;8.60;99.90;;;;;;5034841;28;20441;-57
2023/03/10 09:30:47;;;;;;;12.83;9.00;;;8.60;99.90;;;;;;5029567;28;20425;-60
2023/03/10 09:33:17;;;;;;;15.23;9.30;;;8.50;99.90;;;;;;5032507;28;20456;-63
2023/03/10 09:35:45;;;;;;;14.33;10.37;;;8.40;99.90;;;;;;5021604;28;20465;-59
2023/03/10 09:38:16;;;;;;;17.77;10.33;;;8.30;99.90;;;;;;5019543;28;20520;-58
2023/03/10 09:40:47;;;;;;;15.33;10.73;;;8.30;99.90;;;;;;5019888;28;20438;-63
2023/03/10 09:43:17;;;;;;;17.13;10.40;;;8.30;99.90;;;;;;5030166;28;20650;-63
2023/03/10 09:45:53;;;;;;;18.63;12.33;;;8.50;99.90;;;;;;5021757;28;20465;-62
2023/03/10 09:48:41;;;;;;;27.00;12.67;;;8.70;99.90;;;;;;5017006;28;20480;-59
2023/03/10 09:51:18;;;;;;;24.13;11.00;;;8.80;99.90;;;;;;5033268;28;20433;-50
2023/03/10 09:54:00;;;;;;;15.30;10.00;;;8.90;99.90;;;;;;5023633;28;20556;-57
2023/03/10 09:56:31;;;;;;;19.43;12.00;;;9.00;99.90;;;;;;5037142;28;20444;-65
2023/03/10 09:59:10;;;;;;;18.00;10.63;;;9.10;99.90;;;;;;5036268;28;20497;-54
2023/03/10 10:01:40;;;;;;;21.60;11.03;;;9.10;99.90;;;;;;5017820;28;20469;-62
2023/03/10 10:04:10;;;;;;;14.30;9.20;;;9.20;99.90;;;;;;5016480;28;20504;-64
2023/03/10 10:06:42;;;;;;;16.03;8.40;;;9.20;99.90;;;;;;5017353;28;20422;-62
2023/03/10 10:09:17;;;;;;;15.03;10.80;;;9.30;99.90;;;;;;5032133;28;20433;-57
2023/03/10 10:11:44;;;;;;;14.17;8.33;;;9.40;99.90;;;;;;5036907;28;20436;-59
2023/03/10 10:14:18;;;;;;;11.43;7.43;;;9.50;99.90;;;;;;5036351;28;20453;-65
2023/03/10 10:16:51;;;;;;;7.40;5.27;;;9.60;99.90;;;;;;5038315;28;20464;-60
2023/03/10 10:19:21;;;;;;;8.40;5.83;;;9.60;99.90;;;;;;5038400;28;20449;-62
2023/03/10 10:21:54;;;;;;;14.83;8.20;;;9.50;99.90;;;;;;5038122;28;20460;-60
2023/03/10 10:24:22;;;;;;;19.77;10.27;;;9.40;99.90;;;;;;5037036;28;20429;-59
2023/03/10 10:26:49;;;;;;;17.43;10.47;;;9.40;99.90;;;;;;5016637;28;20470;-67
2023/03/10 10:29:18;;;;;;;18.10;10.70;;;9.40;99.90;;;;;;5018042;28;20442;-61
2023/03/10 10:32:04;;;;;;;12.97;9.33;;;9.40;99.90;;;;;;5018161;28;20461;-62
2023/03/10 10:34:31;;;;;;;14.60;9.33;;;9.20;99.90;;;;;;5018269;28;20486;-62
2023/03/10 10:37:00;;;;;;;15.53;9.97;;;9.20;99.90;;;;;;5018157;28;20452;-60
2023/03/10 10:39:31;;;;;;;20.10;9.30;;;9.10;99.90;;;;;;5017917;28;20485;-63
2023/03/10 10:42:19;;;;;;;16.87;9.43;;;9.00;99.90;;;;;;5016242;28;20517;-60
2023/03/10 10:44:46;;;;;;;18.37;10.80;;;9.00;99.90;;;;;;5017674;28;20454;-57
2023/03/10 10:47:26;;;;;;;14.20;9.23;;;9.00;99.90;;;;;;5017981;28;20434;-62
2023/03/10 10:49:53;;;;;;;14.30;8.23;;;9.10;99.90;;;;;;5016972;28;20452;-61
2023/03/10 10:52:24;;;;;;;9.73;7.33;;;9.10;99.90;;;;;;5018151;28;20449;-58
2023/03/10 10:54:55;;;;;;;10.57;7.57;;;9.00;99.90;;;;;;5022787;28;20468;-58
2023/03/10 10:57:27;;;;;;;11.23;8.73;;;9.00;99.90;;;;;;5037030;28;20444;-61
2023/03/10 10:59:54;;;;;;;12.50;8.63;;;9.00;99.90;;;;;;5037143;28;20504;-60
2023/03/10 11:02:26;;;;;;;13.03;9.20;;;9.00;99.90;;;;;;5036611;28;20505;-63
2023/03/10 11:04:54;;;;;;;14.27;8.87;;;9.00;99.90;;;;;;5035965;28;20414;-63
2023/03/10 11:07:26;;;;;;;11.60;8.57;;;9.10;99.90;;;;;;5035876;28;20463;-60
2023/03/10 11:09:54;;;;;;;15.57;9.30;;;9.10;99.90;;;;;;5036164;28;20422;-62
2023/03/10 11:12:28;;;;;;;13.80;9.30;;;9.20;99.90;;;;;;5036104;28;20472;-58
2023/03/10 11:15:12;;;;;;;13.53;8.10;;;9.20;99.90;;;;;;5036446;28;20485;-64
2023/03/10 11:17:43;;;;;;;8.73;7.80;;;9.30;99.90;;;;;;5036356;28;20481;-60
2023/03/10 11:20:23;;;;;;;12.90;9.20;;;9.30;99.90;;;;;;5036442;28;20469;-61
2023/03/10 11:22:58;;;;;;;13.10;8.87;;;9.20;99.90;;;;;;5036312;28;20464;-63
2023/03/10 11:25:30;;;;;;;12.80;7.80;;;9.20;99.90;;;;;;5035975;28;20460;-65
2023/03/10 11:28:14;;;;;;;10.70;7.80;;;9.30;99.90;;;;;;5028659;28;20540;-64
2023/03/10 11:30:46;;;;;;;11.23;8.00;;;9.30;99.90;;;;;;5022217;28;20448;-53
2023/03/10 11:33:21;;;;;;;12.70;9.00;;;9.20;99.90;;;;;;5031474;28;20437;-60
2023/03/10 11:35:50;;;;;;;11.10;8.20;;;9.10;99.90;;;;;;5036227;28;20452;-59
2023/03/10 11:38:37;;;;;;;15.07;8.83;;;9.00;99.90;;;;;;5034153;28;20437;-59
2023/03/10 11:41:08;;;;;;;11.90;9.23;;;9.00;99.90;;;;;;5034829;28;20471;-56
2023/03/10 11:43:49;;;;;;;12.33;7.80;;;9.00;99.90;;;;;;5036484;28;20461;-62
2023/03/10 11:46:23;;;;;;;11.70;8.90;;;9.00;99.90;;;;;;5036752;28;20457;-63
2023/03/10 11:49:05;;;;;;;10.50;7.53;;;9.00;99.90;;;;;;5034887;28;20456;-61
2023/03/10 11:51:37;;;;;;;14.43;8.77;;;8.80;99.90;;;;;;5036756;28;20873;-57
2023/03/10 11:54:13;;;;;;;13.67;8.93;;;8.80;99.90;;;;;;5031571;28;20436;-67
2023/03/10 11:56:41;;;;;;;13.30;8.40;;;8.80;99.90;;;;;;5021138;28;20469;-67
2023/03/10 11:59:13;;;;;;;11.30;7.50;;;8.70;99.90;;;;;;5034845;28;20477;-61
2023/03/10 12:01:45;;;;;;;10.50;7.60;;;8.70;99.90;;;;;;5032784;28;20497;-60
2023/03/10 12:04:20;;;;;;;9.37;7.40;;;8.70;99.90;;;;;;5024353;28;20433;-65
2023/03/10 12:06:52;;;;;;;15.87;9.57;;;8.70;99.90;;;;;;5023999;28;20836;-67
2023/03/10 12:09:36;;;;;;;17.27;10.20;;;8.70;99.90;;;;;;5036148;28;20465;-63
2023/03/10 12:12:05;;;;;;;14.77;8.43;;;8.70;99.90;;;;;;5034100;28;20487;-54
2023/03/10 12:14:33;;;;;;;13.53;8.03;;;8.80;99.90;;;;;;5016833;28;20426;-59
2023/03/10 12:17:02;;;;;;;11.13;7.30;;;8.70;99.90;;;;;;5017025;28;20538;-62
2023/03/10 12:19:29;;;;;;;6.80;4.80;;;8.70;99.90;;;;;;5015100;28;20497;-65
2023/03/10 12:22:24;;;;;;;7.97;6.23;;;8.60;99.90;;;;;;5008322;28;20478;-68
2023/03/10 12:24:53;;;;;;;7.03;4.87;;;8.50;99.90;;;;;;5016509;28;20617;-61
2023/03/10 12:27:19;;;;;;;5.73;4.87;;;8.60;99.90;;;;;;5025567;28;20492;-62
2023/03/10 12:29:47;;;;;;;6.50;5.50;;;8.70;99.90;;;;;;5040107;28;20545;-63
2023/03/10 12:32:40;;;;;;;6.43;4.57;;;8.80;99.90;;;;;;5039915;28;20480;-59
2023/03/10 12:35:46;;;;;;;7.23;5.47;;;8.90;99.90;;;;;;5039836;28;20468;-67
2023/03/10 12:38:41;;;;;;;7.27;5.40;;;9.10;99.90;;;;;;4960747;29;20459;-59
2023/03/10 12:41:12;;;;;;;7.37;4.37;;;9.10;99.90;;;;;;5039735;28;20477;-57
2023/03/10 12:43:55;;;;;;;5.50;3.90;;;9.10;99.90;;;;;;5040007;28;20414;-58
2023/03/10 12:46:27;;;;;;;7.03;4.37;;;9.10;99.90;;;;;;5039041;28;20496;-63
2023/03/10 12:49:07;;;;;;;5.93;4.00;;;9.10;99.90;;;;;;5039241;28;20421;-66
2023/03/10 12:51:40;;;;;;;4.90;3.17;;;9.10;99.90;;;;;;5039569;28;20441;-57
2023/03/10 12:54:34;;;;;;;7.97;3.77;;;9.00;99.90;;;;;;5040038;28;20425;-53
2023/03/10 12:57:08;;;;;;;6.53;3.93;;;9.00;99.90;;;;;;5040283;28;20460;-57
2023/03/10 12:59:40;;;;;;;7.33;4.93;;;9.10;99.90;;;;;;5040189;28;20479;-56